createdAt,value
2023-05-17T03:50:11.108Z,100
2023-05-17T09:31:26.762Z,65
2023-05-17T13:42:19.715Z,47
2023-05-17T13:52:22.082Z,45
2023-05-17T14:52:35.517Z,46
2023-05-17T15:22:42.327Z,45
2023-05-17T15:32:44.548Z,43
2023-05-17T15:42:46.215Z,45
2023-05-17T15:52:48.537Z,45
2023-05-17T16:02:50.674Z,44
2023-05-17T16:12:52.858Z,46
2023-05-17T16:32:57.769Z,45
2023-05-17T16:53:01.838Z,48
2023-05-17T17:13:06.220Z,47
2023-05-17T17:33:10.888Z,49
2023-05-17T17:53:15.146Z,52
2023-05-17T18:23:21.240Z,53
2023-05-17T18:33:23.207Z,55
2023-05-17T18:43:25.168Z,56
2023-05-17T18:53:27.796Z,58
2023-05-17T19:03:30.015Z,60
2023-05-17T19:13:31.894Z,62
2023-05-17T19:23:34.285Z,63
2023-05-17T19:33:36.079Z,64
2023-05-17T19:43:37.805Z,66
2023-05-17T19:53:48.243Z,67
2023-05-17T20:03:42.199Z,69
2023-05-17T20:13:44.297Z,70
2023-05-17T20:23:46.931Z,72
2023-05-17T20:33:48.923Z,73
2023-05-17T20:43:50.673Z,74
2023-05-17T21:03:55.059Z,77
2023-05-17T21:13:57.039Z,77
2023-05-17T21:23:59.673Z,79
2023-05-17T21:34:01.922Z,80
2023-05-17T21:44:03.752Z,81
2023-05-17T21:54:06.202Z,81
2023-05-17T22:04:08.342Z,81
2023-05-17T22:14:10.473Z,82
2023-05-17T22:24:12.724Z,84
2023-05-17T22:34:14.810Z,85
2023-05-17T22:44:16.595Z,87
2023-05-17T22:54:18.847Z,89
2023-05-17T23:04:21.221Z,90
2023-05-17T23:24:25.600Z,93
2023-05-17T23:37:22.220Z,93
